Time;durP1;ratioP1;P1;durP2;ratioP2;P2;SDS_P1;SDS_P2;PMS_P1;PMS_P2;Temp;Humidity;BMP_temperature;BMP_pressure;BME280_temperature;BME280_humidity;BME280_pressure;Samples;Min_cycle;Max_cycle;Signal;HPM_P1;HPM_P2
2022/11/18 07:05:57;;;;;;;18.45;9.70;;;;;;;0.74;100.00;99212.59;1704075;82;21647;-37
2022/11/18 07:08:24;;;;;;;15.90;8.98;;;;;;;0.75;100.00;99213.08;1669840;83;21029;-37
2022/11/18 07:10:52;;;;;;;17.95;8.75;;;;;;;0.83;100.00;99212.37;1700304;82;20993;-37
2022/11/18 07:13:21;;;;;;;11.70;8.38;;;;;;;0.94;100.00;99216.91;1676965;83;21072;-39
2022/11/18 07:15:47;;;;;;;13.08;7.92;;;;;;;1.09;100.00;99221.92;1654626;86;21030;-37
2022/11/18 07:18:13;;;;;;;10.38;7.92;;;;;;;1.15;100.00;99219.05;1641040;85;21160;-38
2022/11/18 07:20:40;;;;;;;11.08;8.58;;;;;;;1.19;99.59;99233.73;1650206;86;20993;-38
2022/11/18 07:23:06;;;;;;;11.53;7.80;;;;;;;1.25;99.08;99226.55;1657028;85;21144;-37
2022/11/18 07:25:33;;;;;;;14.25;9.40;;;;;;;1.32;98.31;99233.14;1662282;84;21001;-37
2022/11/18 07:27:59;;;;;;;21.57;10.90;;;;;;;1.36;97.36;99231.92;1662889;85;21116;-38
2022/11/18 07:30:26;;;;;;;12.10;8.35;;;;;;;1.40;97.26;99240.18;1661786;85;21028;-37
2022/11/18 07:32:52;;;;;;;14.53;8.73;;;;;;;1.50;97.11;99235.20;1661069;84;21600;-37
2022/11/18 07:35:19;;;;;;;10.35;7.58;;;;;;;1.63;96.17;99238.05;1673378;84;21119;-37
2022/11/18 07:37:46;;;;;;;11.20;7.37;;;;;;;1.70;95.46;99240.76;1673534;84;21545;-37
2022/11/18 07:40:13;;;;;;;10.25;7.53;;;;;;;1.75;94.84;99244.30;1651835;85;21541;-37
2022/11/18 07:42:42;;;;;;;8.50;6.70;;;;;;;1.79;94.29;99255.09;1681556;83;20998;-37
2022/11/18 07:45:11;;;;;;;9.63;7.12;;;;;;;1.86;93.75;99259.55;1677435;84;21037;-37
2022/11/18 07:47:40;;;;;;;16.12;7.55;;;;;;;1.91;93.26;99269.06;1681162;82;21350;-37
2022/11/18 07:50:08;;;;;;;10.43;7.30;;;;;;;1.90;92.57;99265.61;1678562;82;21081;-36
2022/11/18 07:52:35;;;;;;;8.73;7.50;;;;;;;1.94;92.26;99275.16;1654112;86;21078;-38
2022/11/18 07:55:01;;;;;;;10.98;7.40;;;;;;;1.97;92.08;99276.52;1646159;86;21051;-38
2022/11/18 07:57:28;;;;;;;12.30;7.75;;;;;;;2.05;91.68;99274.94;1651380;85;21067;-37
2022/11/18 07:59:55;;;;;;;10.03;7.55;;;;;;;2.16;91.17;99281.58;1651475;85;21043;-37
2022/11/18 08:02:21;;;;;;;9.75;7.03;;;;;;;2.24;90.52;99286.44;1631092;86;21538;-37
2022/11/18 08:04:48;;;;;;;10.63;7.03;;;;;;;2.27;89.95;99289.52;1652115;86;21543;-37
2022/11/18 08:07:14;;;;;;;11.10;7.45;;;;;;;2.30;89.42;99296.00;1650581;85;21109;-38
2022/11/18 08:09:41;;;;;;;10.03;7.58;;;;;;;2.26;88.84;99295.10;1653864;86;21074;-37
2022/11/18 08:12:07;;;;;;;10.60;7.97;;;;;;;2.23;88.22;99302.77;1673831;84;21624;-37
2022/11/18 10:33:25;;;;;;;10.85;7.90;;;;;;;3.40;83.11;99348.95;1722943;82;20974;-37
2022/11/18 10:36:19;;;;;;;10.53;7.90;;;;;;;3.38;83.63;99347.20;1736120;81;21632;-37
2022/11/18 10:38:46;;;;;;;10.05;7.65;;;;;;;3.44;83.78;99345.56;1727242;81;21043;-37
2022/11/18 10:41:16;;;;;;;11.88;8.90;;;;;;;3.47;83.37;99346.02;1740343;81;21181;-37
2022/11/18 10:43:52;;;;;;;11.30;8.45;;;;;;;3.47;83.60;99355.06;1723450;82;21477;-45
2022/11/18 10:46:37;;;;;;;10.95;8.28;;;;;;;3.52;83.28;99349.96;1720225;81;21581;-36
2022/11/18 10:49:15;;;;;;;11.30;8.28;;;;;;;3.52;83.28;99352.13;1735828;81;21015;-45
2022/11/18 10:51:49;;;;;;;11.30;8.10;;;;;;;3.53;83.10;99360.75;1749932;81;21047;-45
2022/11/18 10:54:20;;;;;;;12.55;8.18;;;;;;;3.51;83.23;99367.20;1742387;80;21495;-45
2022/11/18 10:57:12;;;;;;;14.15;9.95;;;;;;;3.49;83.14;99368.91;1740298;81;21058;-44
2022/11/18 10:59:46;;;;;;;15.60;10.58;;;;;;;3.46;83.04;99363.68;1725937;81;21045;-38
2022/11/18 11:02:29;;;;;;;14.53;10.18;;;;;;;3.37;82.98;99366.16;1745413;81;21074;-37
2022/11/18 11:04:57;;;;;;;15.05;9.80;;;;;;;3.33;83.36;99372.12;1732954;81;21485;-38
2022/11/18 11:07:37;;;;;;;12.53;9.40;;;;;;;3.29;83.36;99378.95;1731452;82;21589;-37
2022/11/18 11:10:09;;;;;;;17.25;10.43;;;;;;;3.22;83.55;99383.59;1749229;80;20999;-37
2022/11/18 11:12:45;;;;;;;13.80;10.03;;;;;;;3.15;83.93;99383.06;1713607;82;21506;-38
2022/11/18 11:15:13;;;;;;;14.73;11.43;;;;;;;3.13;84.08;99408.89;1709173;83;21070;-37
2022/11/18 11:20:44;;;;;;;15.48;10.95;;;;;;;3.13;84.09;99391.20;1714807;82;21078;-46
2022/11/18 11:23:13;;;;;;;22.45;11.03;;;;;;;3.00;84.44;99391.44;1735680;81;21437;-37
2022/11/18 11:26:02;;;;;;;16.75;11.73;;;;;;;2.94;84.96;99400.38;1693400;82;21498;-37
2022/11/18 11:28:43;;;;;;;17.55;12.50;;;;;;;2.87;85.12;99412.34;1730253;81;21599;-38
2022/11/18 11:31:24;;;;;;;14.45;11.22;;;;;;;2.79;85.00;99401.02;1736956;82;21157;-38
2022/11/18 11:34:20;;;;;;;18.73;12.68;;;;;;;2.78;85.53;99392.79;1735276;82;21086;-38
2022/11/18 11:37:13;;;;;;;19.52;12.25;;;;;;;2.80;85.91;99396.72;1664884;85;21076;-45
2022/11/18 11:40:02;;;;;;;16.32;11.33;;;;;;;2.76;85.85;99402.66;1696901;83;22048;-38
2022/11/18 11:42:46;;;;;;;16.40;10.63;;;;;;;2.70;86.04;99398.27;1678722;82;21591;-47
2022/11/18 11:45:56;;;;;;;17.57;11.08;;;;;;;2.67;85.98;99395.64;1719799;82;21111;-38
2022/11/18 11:48:56;;;;;;;16.00;11.60;;;;;;;2.61;86.23;99394.25;1722288;83;21033;-45
2022/11/18 11:51:49;;;;;;;14.50;9.90;;;;;;;2.57;86.31;99395.02;1709950;83;21073;-46
2022/11/18 11:54:47;;;;;;;22.93;11.55;;;;;;;2.46;86.49;99381.05;1687678;84;21011;-46
2022/11/18 11:57:36;;;;;;;15.60;11.63;;;;;;;2.34;86.92;99389.02;1712279;83;21053;-37
2022/11/18 12:00:11;;;;;;;14.03;10.53;;;;;;;2.32;87.64;99402.33;1715461;83;21500;-46
2022/11/18 12:02:55;;;;;;;15.00;10.78;;;;;;;2.27;87.83;99405.67;1707755;83;21018;-46
2022/11/18 12:05:32;;;;;;;15.65;11.20;;;;;;;2.26;88.13;99416.80;1701963;83;21488;-38
2022/11/18 12:08:16;;;;;;;14.73;9.73;;;;;;;2.28;88.54;99412.14;1689471;84;21575;-38
